sensor_id;sensor_type;location;lat;lon;timestamp;P1;durP1;ratioP1;P2;durP2;ratioP2
11996;SDS011;6058;48.704;9.474;2023-02-13T00:01:51;24.97;;;11.37;;
11996;SDS011;6058;48.704;9.474;2023-02-13T00:04:18;20.93;;;10.60;;
11996;SDS011;6058;48.704;9.474;2023-02-13T00:06:45;21.73;;;10.87;;
11996;SDS011;6058;48.704;9.474;2023-02-13T00:09:15;23.17;;;11.90;;
11996;SDS011;6058;48.704;9.474;2023-02-13T00:11:42;23.23;;;11.83;;
11996;SDS011;6058;48.704;9.474;2023-02-13T00:14:09;24.97;;;13.40;;
11996;SDS011;6058;48.704;9.474;2023-02-13T00:16:36;23.07;;;11.43;;
11996;SDS011;6058;48.704;9.474;2023-02-13T00:19:03;26.43;;;12.37;;
11996;SDS011;6058;48.704;9.474;2023-02-13T00:21:30;22.93;;;13.00;;
11996;SDS011;6058;48.704;9.474;2023-02-13T00:23:57;20.90;;;11.00;;
11996;SDS011;6058;48.704;9.474;2023-02-13T00:26:26;20.47;;;11.30;;
11996;SDS011;6058;48.704;9.474;2023-02-13T00:28:55;21.00;;;10.97;;
11996;SDS011;6058;48.704;9.474;2023-02-13T00:31:22;24.80;;;12.00;;
11996;SDS011;6058;48.704;9.474;2023-02-13T00:33:49;23.67;;;11.80;;
11996;SDS011;6058;48.704;9.474;2023-02-13T00:36:17;21.17;;;11.03;;
11996;SDS011;6058;48.704;9.474;2023-02-13T00:38:45;19.20;;;10.77;;
11996;SDS011;6058;48.704;9.474;2023-02-13T00:41:13;22.33;;;11.63;;
11996;SDS011;6058;48.704;9.474;2023-02-13T00:43:42;21.63;;;11.13;;
11996;SDS011;6058;48.704;9.474;2023-02-13T00:46:10;23.43;;;11.30;;
11996;SDS011;6058;48.704;9.474;2023-02-13T00:48:37;20.77;;;11.03;;
11996;SDS011;6058;48.704;9.474;2023-02-13T00:51:04;23.03;;;12.03;;
11996;SDS011;6058;48.704;9.474;2023-02-13T00:53:32;22.47;;;12.07;;
11996;SDS011;6058;48.704;9.474;2023-02-13T00:56:00;23.33;;;12.03;;
11996;SDS011;6058;48.704;9.474;2023-02-13T00:58:27;22.43;;;11.93;;
11996;SDS011;6058;48.704;9.474;2023-02-13T01:00:55;20.83;;;11.60;;
11996;SDS011;6058;48.704;9.474;2023-02-13T01:03:23;22.80;;;12.63;;
11996;SDS011;6058;48.704;9.474;2023-02-13T01:05:50;22.63;;;12.57;;
11996;SDS011;6058;48.704;9.474;2023-02-13T01:08:17;25.73;;;13.33;;
11996;SDS011;6058;48.704;9.474;2023-02-13T01:10:45;22.57;;;11.80;;
11996;SDS011;6058;48.704;9.474;2023-02-13T01:13:13;22.63;;;11.53;;
11996;SDS011;6058;48.704;9.474;2023-02-13T01:15:42;18.70;;;11.30;;
11996;SDS011;6058;48.704;9.474;2023-02-13T01:18:11;23.10;;;11.83;;
11996;SDS011;6058;48.704;9.474;2023-02-13T01:20:38;24.83;;;11.83;;
11996;SDS011;6058;48.704;9.474;2023-02-13T01:23:06;20.97;;;12.13;;
11996;SDS011;6058;48.704;9.474;2023-02-13T01:25:33;21.57;;;11.90;;
11996;SDS011;6058;48.704;9.474;2023-02-13T01:28:00;22.00;;;11.17;;
11996;SDS011;6058;48.704;9.474;2023-02-13T01:30:27;20.27;;;10.70;;
11996;SDS011;6058;48.704;9.474;2023-02-13T01:32:54;19.23;;;10.63;;
11996;SDS011;6058;48.704;9.474;2023-02-13T01:35:23;22.50;;;11.73;;
11996;SDS011;6058;48.704;9.474;2023-02-13T01:37:50;26.87;;;12.33;;
11996;SDS011;6058;48.704;9.474;2023-02-13T01:40:17;19.47;;;10.13;;
11996;SDS011;6058;48.704;9.474;2023-02-13T01:42:44;20.80;;;10.90;;
11996;SDS011;6058;48.704;9.474;2023-02-13T01:45:19;22.17;;;12.20;;
11996;SDS011;6058;48.704;9.474;2023-02-13T01:47:48;21.17;;;11.23;;
11996;SDS011;6058;48.704;9.474;2023-02-13T01:50:17;20.13;;;10.70;;
11996;SDS011;6058;48.704;9.474;2023-02-13T01:52:47;19.43;;;10.17;;
11996;SDS011;6058;48.704;9.474;2023-02-13T01:55:16;17.40;;;9.40;;
11996;SDS011;6058;48.704;9.474;2023-02-13T01:57:45;23.83;;;11.77;;
11996;SDS011;6058;48.704;9.474;2023-02-13T02:00:14;20.30;;;10.90;;
11996;SDS011;6058;48.704;9.474;2023-02-13T02:02:42;19.10;;;10.90;;
11996;SDS011;6058;48.704;9.474;2023-02-13T02:05:10;19.87;;;10.33;;
11996;SDS011;6058;48.704;9.474;2023-02-13T02:07:38;17.77;;;9.50;;
11996;SDS011;6058;48.704;9.474;2023-02-13T02:10:09;21.00;;;9.70;;
11996;SDS011;6058;48.704;9.474;2023-02-13T02:12:38;22.27;;;10.13;;
11996;SDS011;6058;48.704;9.474;2023-02-13T02:15:08;20.13;;;10.63;;
11996;SDS011;6058;48.704;9.474;2023-02-13T02:17:35;17.37;;;9.90;;
11996;SDS011;6058;48.704;9.474;2023-02-13T02:20:05;15.77;;;9.80;;
11996;SDS011;6058;48.704;9.474;2023-02-13T02:22:46;17.87;;;9.77;;
11996;SDS011;6058;48.704;9.474;2023-02-13T02:25:37;14.73;;;8.77;;
11996;SDS011;6058;48.704;9.474;2023-02-13T02:28:21;14.17;;;8.13;;
11996;SDS011;6058;48.704;9.474;2023-02-13T02:33:51;14.20;;;8.37;;
11996;SDS011;6058;48.704;9.474;2023-02-13T02:36:27;13.97;;;8.27;;
11996;SDS011;6058;48.704;9.474;2023-02-13T02:38:59;15.00;;;8.57;;
11996;SDS011;6058;48.704;9.474;2023-02-13T02:41:30;11.87;;;7.57;;
11996;SDS011;6058;48.704;9.474;2023-02-13T02:44:11;13.53;;;7.70;;
11996;SDS011;6058;48.704;9.474;2023-02-13T02:46:43;13.13;;;8.17;;
11996;SDS011;6058;48.704;9.474;2023-02-13T02:49:37;16.07;;;8.80;;
11996;SDS011;6058;48.704;9.474;2023-02-13T02:52:24;14.93;;;8.57;;
11996;SDS011;6058;48.704;9.474;2023-02-13T02:54:52;14.67;;;7.87;;
11996;SDS011;6058;48.704;9.474;2023-02-13T02:57:34;16.40;;;8.77;;
11996;SDS011;6058;48.704;9.474;2023-02-13T03:00:22;14.37;;;8.23;;
11996;SDS011;6058;48.704;9.474;2023-02-13T03:03:08;13.27;;;7.13;;
11996;SDS011;6058;48.704;9.474;2023-02-13T03:05:56;13.50;;;7.53;;
11996;SDS011;6058;48.704;9.474;2023-02-13T03:08:36;13.07;;;7.00;;
11996;SDS011;6058;48.704;9.474;2023-02-13T03:11:21;15.50;;;7.63;;
11996;SDS011;6058;48.704;9.474;2023-02-13T03:14:06;13.60;;;7.67;;
11996;SDS011;6058;48.704;9.474;2023-02-13T03:16:35;14.53;;;8.13;;
11996;SDS011;6058;48.704;9.474;2023-02-13T03:19:21;13.27;;;7.60;;
11996;SDS011;6058;48.704;9.474;2023-02-13T03:22:11;12.73;;;7.63;;
11996;SDS011;6058;48.704;9.474;2023-02-13T03:24:46;14.73;;;8.03;;
11996;SDS011;6058;48.704;9.474;2023-02-13T03:27:18;13.37;;;7.47;;
11996;SDS011;6058;48.704;9.474;2023-02-13T03:30:10;14.67;;;8.60;;
11996;SDS011;6058;48.704;9.474;2023-02-13T03:32:42;11.90;;;7.53;;
11996;SDS011;6058;48.704;9.474;2023-02-13T03:35:15;16.87;;;7.70;;
11996;SDS011;6058;48.704;9.474;2023-02-13T03:38:07;11.80;;;7.37;;
11996;SDS011;6058;48.704;9.474;2023-02-13T03:40:39;11.17;;;7.20;;
11996;SDS011;6058;48.704;9.474;2023-02-13T03:43:28;12.43;;;8.37;;
11996;SDS011;6058;48.704;9.474;2023-02-13T03:45:58;9.90;;;6.80;;
11996;SDS011;6058;48.704;9.474;2023-02-13T03:48:26;14.17;;;7.20;;
11996;SDS011;6058;48.704;9.474;2023-02-13T03:51:14;10.93;;;7.10;;
11996;SDS011;6058;48.704;9.474;2023-02-13T03:53:43;12.23;;;7.83;;
11996;SDS011;6058;48.704;9.474;2023-02-13T03:56:12;11.57;;;6.83;;
11996;SDS011;6058;48.704;9.474;2023-02-13T03:58:59;14.33;;;7.97;;
11996;SDS011;6058;48.704;9.474;2023-02-13T04:01:57;16.20;;;8.50;;
11996;SDS011;6058;48.704;9.474;2023-02-13T04:04:27;10.23;;;7.10;;
11996;SDS011;6058;48.704;9.474;2023-02-13T04:06:57;12.67;;;7.47;;
11996;SDS011;6058;48.704;9.474;2023-02-13T04:09:27;11.50;;;6.93;;
11996;SDS011;6058;48.704;9.474;2023-02-13T04:11:56;10.43;;;7.00;;
11996;SDS011;6058;48.704;9.474;2023-02-13T04:14:26;12.87;;;7.77;;
11996;SDS011;6058;48.704;9.474;2023-02-13T04:16:55;12.77;;;7.20;;
11996;SDS011;6058;48.704;9.474;2023-02-13T04:19:23;10.27;;;7.33;;
11996;SDS011;6058;48.704;9.474;2023-02-13T04:21:53;12.43;;;7.40;;
11996;SDS011;6058;48.704;9.474;2023-02-13T04:24:21;12.27;;;7.43;;
11996;SDS011;6058;48.704;9.474;2023-02-13T04:26:50;12.97;;;7.50;;
11996;SDS011;6058;48.704;9.474;2023-02-13T04:29:17;14.03;;;7.30;;
11996;SDS011;6058;48.704;9.474;2023-02-13T04:31:45;12.50;;;7.33;;
11996;SDS011;6058;48.704;9.474;2023-02-13T04:34:12;13.13;;;8.07;;
11996;SDS011;6058;48.704;9.474;2023-02-13T04:36:39;13.47;;;7.43;;
11996;SDS011;6058;48.704;9.474;2023-02-13T04:39:06;14.20;;;7.57;;
11996;SDS011;6058;48.704;9.474;2023-02-13T04:41:33;14.97;;;8.23;;
11996;SDS011;6058;48.704;9.474;2023-02-13T04:44:02;14.60;;;8.50;;
11996;SDS011;6058;48.704;9.474;2023-02-13T04:46:29;13.33;;;7.10;;
11996;SDS011;6058;48.704;9.474;2023-02-13T04:48:56;11.57;;;7.67;;
11996;SDS011;6058;48.704;9.474;2023-02-13T04:51:23;11.70;;;7.70;;
11996;SDS011;6058;48.704;9.474;2023-02-13T04:53:50;9.07;;;7.10;;
11996;SDS011;6058;48.704;9.474;2023-02-13T04:56:17;12.67;;;7.10;;
11996;SDS011;6058;48.704;9.474;2023-02-13T04:58:44;14.57;;;8.10;;
11996;SDS011;6058;48.704;9.474;2023-02-13T05:01:13;13.80;;;7.33;;
11996;SDS011;6058;48.704;9.474;2023-02-13T05:03:41;10.60;;;7.07;;
11996;SDS011;6058;48.704;9.474;2023-02-13T05:06:08;12.73;;;6.50;;
11996;SDS011;6058;48.704;9.474;2023-02-13T05:08:35;16.07;;;8.93;;
11996;SDS011;6058;48.704;9.474;2023-02-13T05:11:03;11.33;;;6.40;;
11996;SDS011;6058;48.704;9.474;2023-02-13T05:13:30;13.17;;;7.23;;
11996;SDS011;6058;48.704;9.474;2023-02-13T05:15:57;11.00;;;7.57;;
11996;SDS011;6058;48.704;9.474;2023-02-13T05:18:26;10.50;;;6.57;;
11996;SDS011;6058;48.704;9.474;2023-02-13T05:20:53;10.20;;;7.13;;
11996;SDS011;6058;48.704;9.474;2023-02-13T05:23:38;9.23;;;6.60;;
11996;SDS011;6058;48.704;9.474;2023-02-13T05:26:05;9.57;;;7.10;;
11996;SDS011;6058;48.704;9.474;2023-02-13T05:28:32;11.13;;;7.07;;
11996;SDS011;6058;48.704;9.474;2023-02-13T05:31:16;11.80;;;6.73;;
11996;SDS011;6058;48.704;9.474;2023-02-13T05:33:44;9.87;;;6.47;;
11996;SDS011;6058;48.704;9.474;2023-02-13T05:36:11;12.23;;;7.50;;
11996;SDS011;6058;48.704;9.474;2023-02-13T05:38:39;22.33;;;10.87;;
11996;SDS011;6058;48.704;9.474;2023-02-13T05:41:06;11.20;;;6.70;;
11996;SDS011;6058;48.704;9.474;2023-02-13T05:43:33;10.67;;;6.83;;
11996;SDS011;6058;48.704;9.474;2023-02-13T05:46:01;12.27;;;7.67;;
11996;SDS011;6058;48.704;9.474;2023-02-13T05:48:28;12.07;;;7.07;;
11996;SDS011;6058;48.704;9.474;2023-02-13T05:50:57;12.90;;;7.57;;
11996;SDS011;6058;48.704;9.474;2023-02-13T05:53:24;12.63;;;7.70;;
11996;SDS011;6058;48.704;9.474;2023-02-13T05:55:51;15.90;;;8.50;;
11996;SDS011;6058;48.704;9.474;2023-02-13T05:58:19;16.40;;;7.73;;
11996;SDS011;6058;48.704;9.474;2023-02-13T06:00:46;13.47;;;8.10;;
11996;SDS011;6058;48.704;9.474;2023-02-13T06:03:13;13.57;;;7.80;;
11996;SDS011;6058;48.704;9.474;2023-02-13T06:05:41;12.20;;;7.73;;
11996;SDS011;6058;48.704;9.474;2023-02-13T06:08:09;12.77;;;7.80;;
11996;SDS011;6058;48.704;9.474;2023-02-13T06:10:36;12.23;;;7.03;;
11996;SDS011;6058;48.704;9.474;2023-02-13T06:13:03;12.70;;;7.57;;
11996;SDS011;6058;48.704;9.474;2023-02-13T06:15:30;13.30;;;7.77;;
11996;SDS011;6058;48.704;9.474;2023-02-13T06:17:57;17.77;;;8.20;;
11996;SDS011;6058;48.704;9.474;2023-02-13T06:20:25;14.57;;;8.03;;
11996;SDS011;6058;48.704;9.474;2023-02-13T06:22:52;12.57;;;7.23;;
11996;SDS011;6058;48.704;9.474;2023-02-13T06:25:21;12.87;;;8.30;;
11996;SDS011;6058;48.704;9.474;2023-02-13T06:27:48;11.33;;;7.80;;
11996;SDS011;6058;48.704;9.474;2023-02-13T06:30:15;12.63;;;8.13;;
11996;SDS011;6058;48.704;9.474;2023-02-13T06:32:43;13.97;;;8.20;;
11996;SDS011;6058;48.704;9.474;2023-02-13T06:35:11;16.20;;;8.57;;
11996;SDS011;6058;48.704;9.474;2023-02-13T06:37:38;9.67;;;6.80;;
11996;SDS011;6058;48.704;9.474;2023-02-13T06:40:07;14.30;;;6.93;;
11996;SDS011;6058;48.704;9.474;2023-02-13T06:42:36;13.03;;;7.30;;
11996;SDS011;6058;48.704;9.474;2023-02-13T06:45:03;11.67;;;7.43;;
11996;SDS011;6058;48.704;9.474;2023-02-13T06:47:30;20.23;;;10.43;;
11996;SDS011;6058;48.704;9.474;2023-02-13T06:49:57;22.17;;;11.53;;
11996;SDS011;6058;48.704;9.474;2023-02-13T06:52:24;18.70;;;10.63;;
11996;SDS011;6058;48.704;9.474;2023-02-13T06:54:51;14.47;;;8.77;;
11996;SDS011;6058;48.704;9.474;2023-02-13T06:57:18;14.60;;;8.03;;
11996;SDS011;6058;48.704;9.474;2023-02-13T06:59:47;20.97;;;10.90;;
11996;SDS011;6058;48.704;9.474;2023-02-13T07:02:14;17.53;;;9.77;;
11996;SDS011;6058;48.704;9.474;2023-02-13T07:04:41;17.10;;;9.47;;
11996;SDS011;6058;48.704;9.474;2023-02-13T07:07:08;16.83;;;10.43;;
11996;SDS011;6058;48.704;9.474;2023-02-13T07:09:36;19.47;;;10.83;;
11996;SDS011;6058;48.704;9.474;2023-02-13T07:12:05;16.50;;;9.40;;
11996;SDS011;6058;48.704;9.474;2023-02-13T07:14:32;18.77;;;10.23;;
11996;SDS011;6058;48.704;9.474;2023-02-13T07:17:01;16.37;;;9.83;;
11996;SDS011;6058;48.704;9.474;2023-02-13T07:19:28;19.03;;;10.20;;
11996;SDS011;6058;48.704;9.474;2023-02-13T07:24:53;22.53;;;13.73;;
11996;SDS011;6058;48.704;9.474;2023-02-13T07:27:20;21.43;;;11.87;;
11996;SDS011;6058;48.704;9.474;2023-02-13T07:33:02;20.17;;;10.40;;
11996;SDS011;6058;48.704;9.474;2023-02-13T07:38:35;20.33;;;10.07;;
11996;SDS011;6058;48.704;9.474;2023-02-13T07:41:02;17.80;;;10.13;;
11996;SDS011;6058;48.704;9.474;2023-02-13T07:43:29;16.53;;;10.33;;
11996;SDS011;6058;48.704;9.474;2023-02-13T07:45:57;17.63;;;10.00;;
11996;SDS011;6058;48.704;9.474;2023-02-13T07:48:25;15.17;;;9.33;;
11996;SDS011;6058;48.704;9.474;2023-02-13T07:50:53;21.33;;;12.17;;
11996;SDS011;6058;48.704;9.474;2023-02-13T07:53:20;16.43;;;10.53;;
11996;SDS011;6058;48.704;9.474;2023-02-13T07:55:47;18.80;;;11.40;;
11996;SDS011;6058;48.704;9.474;2023-02-13T07:58:14;21.90;;;13.13;;
11996;SDS011;6058;48.704;9.474;2023-02-13T08:00:41;21.43;;;12.43;;
11996;SDS011;6058;48.704;9.474;2023-02-13T08:03:08;23.10;;;12.03;;
11996;SDS011;6058;48.704;9.474;2023-02-13T08:05:37;19.40;;;12.00;;
11996;SDS011;6058;48.704;9.474;2023-02-13T08:08:04;17.33;;;10.20;;
11996;SDS011;6058;48.704;9.474;2023-02-13T08:10:32;20.67;;;11.23;;
11996;SDS011;6058;48.704;9.474;2023-02-13T08:13:17;16.93;;;10.43;;
11996;SDS011;6058;48.704;9.474;2023-02-13T08:15:44;16.67;;;10.47;;
11996;SDS011;6058;48.704;9.474;2023-02-13T08:18:11;16.47;;;10.63;;
11996;SDS011;6058;48.704;9.474;2023-02-13T08:20:39;18.03;;;10.53;;
11996;SDS011;6058;48.704;9.474;2023-02-13T08:23:08;18.83;;;12.10;;
11996;SDS011;6058;48.704;9.474;2023-02-13T08:25:36;21.33;;;12.47;;
11996;SDS011;6058;48.704;9.474;2023-02-13T08:28:04;19.23;;;12.47;;
11996;SDS011;6058;48.704;9.474;2023-02-13T08:30:31;20.00;;;12.47;;
11996;SDS011;6058;48.704;9.474;2023-02-13T08:32:58;19.50;;;12.87;;
11996;SDS011;6058;48.704;9.474;2023-02-13T08:35:25;18.07;;;11.83;;
11996;SDS011;6058;48.704;9.474;2023-02-13T08:37:57;18.27;;;11.03;;
11996;SDS011;6058;48.704;9.474;2023-02-13T08:40:27;16.20;;;11.17;;
11996;SDS011;6058;48.704;9.474;2023-02-13T08:42:58;18.73;;;11.50;;
11996;SDS011;6058;48.704;9.474;2023-02-13T08:45:25;18.43;;;11.37;;
11996;SDS011;6058;48.704;9.474;2023-02-13T08:47:54;21.47;;;11.93;;
11996;SDS011;6058;48.704;9.474;2023-02-13T08:50:21;15.63;;;10.67;;
11996;SDS011;6058;48.704;9.474;2023-02-13T08:52:48;19.50;;;11.73;;
11996;SDS011;6058;48.704;9.474;2023-02-13T08:55:17;17.93;;;10.10;;
11996;SDS011;6058;48.704;9.474;2023-02-13T08:57:44;16.73;;;10.97;;
11996;SDS011;6058;48.704;9.474;2023-02-13T09:00:11;13.47;;;9.50;;
11996;SDS011;6058;48.704;9.474;2023-02-13T09:02:39;17.10;;;11.37;;
11996;SDS011;6058;48.704;9.474;2023-02-13T09:05:06;17.50;;;10.37;;
11996;SDS011;6058;48.704;9.474;2023-02-13T09:07:33;16.13;;;10.43;;
11996;SDS011;6058;48.704;9.474;2023-02-13T09:10:01;14.33;;;9.00;;
11996;SDS011;6058;48.704;9.474;2023-02-13T09:12:29;14.00;;;9.70;;
11996;SDS011;6058;48.704;9.474;2023-02-13T09:14:56;14.40;;;9.57;;
11996;SDS011;6058;48.704;9.474;2023-02-13T09:17:24;13.47;;;9.20;;
11996;SDS011;6058;48.704;9.474;2023-02-13T09:19:51;16.40;;;9.87;;
11996;SDS011;6058;48.704;9.474;2023-02-13T09:22:18;14.97;;;9.87;;
11996;SDS011;6058;48.704;9.474;2023-02-13T09:24:45;15.97;;;8.93;;
11996;SDS011;6058;48.704;9.474;2023-02-13T09:27:12;12.70;;;8.87;;
11996;SDS011;6058;48.704;9.474;2023-02-13T09:29:41;13.13;;;9.07;;
11996;SDS011;6058;48.704;9.474;2023-02-13T09:32:08;15.37;;;10.10;;
11996;SDS011;6058;48.704;9.474;2023-02-13T09:34:35;12.33;;;8.60;;
11996;SDS011;6058;48.704;9.474;2023-02-13T09:37:02;14.17;;;9.73;;
11996;SDS011;6058;48.704;9.474;2023-02-13T09:39:29;13.57;;;9.03;;
11996;SDS011;6058;48.704;9.474;2023-02-13T09:41:56;12.93;;;8.97;;
11996;SDS011;6058;48.704;9.474;2023-02-13T09:44:26;14.13;;;8.63;;
11996;SDS011;6058;48.704;9.474;2023-02-13T09:47:05;12.73;;;9.13;;
11996;SDS011;6058;48.704;9.474;2023-02-13T09:49:34;12.47;;;8.73;;
11996;SDS011;6058;48.704;9.474;2023-02-13T09:52:02;14.20;;;9.90;;
11996;SDS011;6058;48.704;9.474;2023-02-13T09:54:29;13.53;;;9.07;;
11996;SDS011;6058;48.704;9.474;2023-02-13T09:56:57;14.07;;;9.47;;
11996;SDS011;6058;48.704;9.474;2023-02-13T09:59:32;14.90;;;10.10;;
11996;SDS011;6058;48.704;9.474;2023-02-13T10:02:00;16.83;;;10.03;;
11996;SDS011;6058;48.704;9.474;2023-02-13T10:04:33;16.00;;;10.43;;
11996;SDS011;6058;48.704;9.474;2023-02-13T10:07:08;15.13;;;9.57;;
11996;SDS011;6058;48.704;9.474;2023-02-13T10:09:39;17.03;;;10.00;;
11996;SDS011;6058;48.704;9.474;2023-02-13T10:12:17;16.20;;;10.40;;
11996;SDS011;6058;48.704;9.474;2023-02-13T10:14:49;17.80;;;9.90;;
11996;SDS011;6058;48.704;9.474;2023-02-13T10:17:19;14.13;;;9.37;;
11996;SDS011;6058;48.704;9.474;2023-02-13T10:19:49;12.33;;;9.10;;
11996;SDS011;6058;48.704;9.474;2023-02-13T10:22:19;12.40;;;9.00;;
11996;SDS011;6058;48.704;9.474;2023-02-13T10:24:48;15.00;;;9.33;;
11996;SDS011;6058;48.704;9.474;2023-02-13T10:27:21;12.27;;;8.30;;
11996;SDS011;6058;48.704;9.474;2023-02-13T10:29:50;10.57;;;7.37;;
11996;SDS011;6058;48.704;9.474;2023-02-13T10:32:38;10.73;;;7.37;;
11996;SDS011;6058;48.704;9.474;2023-02-13T10:35:15;10.60;;;7.57;;
11996;SDS011;6058;48.704;9.474;2023-02-13T10:37:44;11.13;;;7.23;;
11996;SDS011;6058;48.704;9.474;2023-02-13T10:40:15;10.10;;;6.63;;
11996;SDS011;6058;48.704;9.474;2023-02-13T10:42:43;9.63;;;6.90;;
11996;SDS011;6058;48.704;9.474;2023-02-13T10:45:23;9.10;;;6.40;;
11996;SDS011;6058;48.704;9.474;2023-02-13T10:48:00;13.57;;;7.10;;
11996;SDS011;6058;48.704;9.474;2023-02-13T10:50:34;12.93;;;7.47;;
11996;SDS011;6058;48.704;9.474;2023-02-13T10:53:07;11.30;;;7.47;;
11996;SDS011;6058;48.704;9.474;2023-02-13T10:55:48;12.13;;;6.50;;
11996;SDS011;6058;48.704;9.474;2023-02-13T10:58:21;8.90;;;6.17;;
11996;SDS011;6058;48.704;9.474;2023-02-13T11:00:52;13.47;;;7.30;;
11996;SDS011;6058;48.704;9.474;2023-02-13T11:03:21;13.80;;;7.20;;
11996;SDS011;6058;48.704;9.474;2023-02-13T11:05:51;8.90;;;7.17;;
11996;SDS011;6058;48.704;9.474;2023-02-13T11:08:19;8.80;;;6.13;;
11996;SDS011;6058;48.704;9.474;2023-02-13T11:10:47;12.63;;;7.03;;
11996;SDS011;6058;48.704;9.474;2023-02-13T11:13:15;11.90;;;7.37;;
11996;SDS011;6058;48.704;9.474;2023-02-13T11:15:54;11.70;;;7.07;;
11996;SDS011;6058;48.704;9.474;2023-02-13T11:18:22;10.03;;;7.20;;
11996;SDS011;6058;48.704;9.474;2023-02-13T11:20:58;10.13;;;6.37;;
11996;SDS011;6058;48.704;9.474;2023-02-13T11:23:33;7.73;;;6.33;;
11996;SDS011;6058;48.704;9.474;2023-02-13T11:26:03;8.63;;;6.57;;
11996;SDS011;6058;48.704;9.474;2023-02-13T11:28:35;12.07;;;7.80;;
11996;SDS011;6058;48.704;9.474;2023-02-13T11:31:21;9.93;;;6.10;;
11996;SDS011;6058;48.704;9.474;2023-02-13T11:33:49;9.03;;;6.47;;
11996;SDS011;6058;48.704;9.474;2023-02-13T11:36:21;8.13;;;5.43;;
11996;SDS011;6058;48.704;9.474;2023-02-13T11:38:55;10.50;;;6.83;;
11996;SDS011;6058;48.704;9.474;2023-02-13T11:41:23;9.77;;;6.53;;
11996;SDS011;6058;48.704;9.474;2023-02-13T11:43:52;10.00;;;6.23;;
11996;SDS011;6058;48.704;9.474;2023-02-13T11:46:25;9.83;;;6.40;;
11996;SDS011;6058;48.704;9.474;2023-02-13T11:48:57;7.83;;;5.30;;
11996;SDS011;6058;48.704;9.474;2023-02-13T11:51:35;8.80;;;6.17;;
11996;SDS011;6058;48.704;9.474;2023-02-13T11:54:03;10.37;;;6.60;;
11996;SDS011;6058;48.704;9.474;2023-02-13T11:56:40;12.00;;;6.30;;
11996;SDS011;6058;48.704;9.474;2023-02-13T11:59:12;8.87;;;6.07;;
11996;SDS011;6058;48.704;9.474;2023-02-13T12:01:40;9.67;;;5.87;;
11996;SDS011;6058;48.704;9.474;2023-02-13T12:04:12;10.83;;;6.57;;
11996;SDS011;6058;48.704;9.474;2023-02-13T12:06:41;7.57;;;2.77;;
11996;SDS011;6058;48.704;9.474;2023-02-13T12:09:23;22.90;;;6.43;;
11996;SDS011;6058;48.704;9.474;2023-02-13T12:11:50;10.47;;;6.27;;
11996;SDS011;6058;48.704;9.474;2023-02-13T12:14:18;11.33;;;7.60;;
11996;SDS011;6058;48.704;9.474;2023-02-13T12:16:47;10.97;;;6.83;;
11996;SDS011;6058;48.704;9.474;2023-02-13T12:19:16;10.80;;;6.73;;
11996;SDS011;6058;48.704;9.474;2023-02-13T12:21:51;10.60;;;6.40;;
11996;SDS011;6058;48.704;9.474;2023-02-13T12:24:28;9.87;;;6.73;;
11996;SDS011;6058;48.704;9.474;2023-02-13T12:27:02;10.97;;;6.50;;
11996;SDS011;6058;48.704;9.474;2023-02-13T12:29:46;10.93;;;7.37;;
11996;SDS011;6058;48.704;9.474;2023-02-13T12:32:17;10.30;;;7.20;;
11996;SDS011;6058;48.704;9.474;2023-02-13T12:34:51;13.13;;;7.60;;
11996;SDS011;6058;48.704;9.474;2023-02-13T12:37:26;13.80;;;8.63;;
11996;SDS011;6058;48.704;9.474;2023-02-13T12:40:01;11.03;;;7.50;;
11996;SDS011;6058;48.704;9.474;2023-02-13T12:42:36;12.63;;;8.00;;
11996;SDS011;6058;48.704;9.474;2023-02-13T12:45:10;10.60;;;7.50;;
11996;SDS011;6058;48.704;9.474;2023-02-13T12:47:41;12.53;;;7.23;;
11996;SDS011;6058;48.704;9.474;2023-02-13T12:50:31;10.10;;;6.63;;
11996;SDS011;6058;48.704;9.474;2023-02-13T12:53:05;14.07;;;7.80;;
11996;SDS011;6058;48.704;9.474;2023-02-13T12:55:47;11.27;;;7.47;;
11996;SDS011;6058;48.704;9.474;2023-02-13T12:58:21;13.33;;;7.40;;
11996;SDS011;6058;48.704;9.474;2023-02-13T13:00:53;11.27;;;6.63;;
11996;SDS011;6058;48.704;9.474;2023-02-13T13:03:24;9.30;;;6.50;;
11996;SDS011;6058;48.704;9.474;2023-02-13T13:06:03;12.13;;;7.80;;
11996;SDS011;6058;48.704;9.474;2023-02-13T13:08:39;13.60;;;7.53;;
11996;SDS011;6058;48.704;9.474;2023-02-13T13:11:16;8.00;;;5.27;;
11996;SDS011;6058;48.704;9.474;2023-02-13T13:13:49;9.93;;;7.57;;
11996;SDS011;6058;48.704;9.474;2023-02-13T13:16:20;11.13;;;6.87;;
11996;SDS011;6058;48.704;9.474;2023-02-13T13:18:52;10.73;;;7.43;;
11996;SDS011;6058;48.704;9.474;2023-02-13T13:21:25;10.77;;;7.20;;
11996;SDS011;6058;48.704;9.474;2023-02-13T13:23:59;10.20;;;7.70;;
11996;SDS011;6058;48.704;9.474;2023-02-13T13:26:31;9.50;;;6.80;;
11996;SDS011;6058;48.704;9.474;2023-02-13T13:29:02;10.27;;;7.03;;
11996;SDS011;6058;48.704;9.474;2023-02-13T13:31:30;9.13;;;6.13;;
11996;SDS011;6058;48.704;9.474;2023-02-13T13:34:01;10.03;;;7.00;;
11996;SDS011;6058;48.704;9.474;2023-02-13T13:36:33;11.13;;;8.20;;
11996;SDS011;6058;48.704;9.474;2023-02-13T13:39:05;11.10;;;7.30;;
11996;SDS011;6058;48.704;9.474;2023-02-13T13:41:36;9.33;;;7.40;;
11996;SDS011;6058;48.704;9.474;2023-02-13T13:44:13;8.60;;;6.80;;
11996;SDS011;6058;48.704;9.474;2023-02-13T13:46:45;15.20;;;7.60;;
11996;SDS011;6058;48.704;9.474;2023-02-13T13:49:26;11.67;;;7.00;;
11996;SDS011;6058;48.704;9.474;2023-02-13T13:52:07;11.33;;;7.13;;
11996;SDS011;6058;48.704;9.474;2023-02-13T13:54:36;12.33;;;7.47;;
11996;SDS011;6058;48.704;9.474;2023-02-13T13:57:04;10.97;;;6.07;;
11996;SDS011;6058;48.704;9.474;2023-02-13T14:05:14;6.90;;;4.43;;
11996;SDS011;6058;48.704;9.474;2023-02-13T14:07:43;12.07;;;7.17;;
11996;SDS011;6058;48.704;9.474;2023-02-13T14:10:46;12.73;;;8.20;;
11996;SDS011;6058;48.704;9.474;2023-02-13T14:13:09;19.33;;;8.13;;
11996;SDS011;6058;48.704;9.474;2023-02-13T14:15:54;13.80;;;7.27;;
11996;SDS011;6058;48.704;9.474;2023-02-13T14:18:21;19.23;;;8.80;;
11996;SDS011;6058;48.704;9.474;2023-02-13T14:20:50;7.47;;;4.43;;
11996;SDS011;6058;48.704;9.474;2023-02-13T14:23:24;13.67;;;8.83;;
11996;SDS011;6058;48.704;9.474;2023-02-13T14:28:36;12.00;;;7.73;;
11996;SDS011;6058;48.704;9.474;2023-02-13T14:31:04;11.77;;;8.17;;
11996;SDS011;6058;48.704;9.474;2023-02-13T14:33:33;10.50;;;6.93;;
11996;SDS011;6058;48.704;9.474;2023-02-13T14:36:01;12.27;;;7.73;;
11996;SDS011;6058;48.704;9.474;2023-02-13T14:38:29;12.03;;;7.30;;
11996;SDS011;6058;48.704;9.474;2023-02-13T14:40:57;10.67;;;7.50;;
11996;SDS011;6058;48.704;9.474;2023-02-13T14:46:08;12.13;;;7.70;;
11996;SDS011;6058;48.704;9.474;2023-02-13T14:48:40;12.60;;;8.13;;
11996;SDS011;6058;48.704;9.474;2023-02-13T14:51:13;11.37;;;7.13;;
11996;SDS011;6058;48.704;9.474;2023-02-13T14:53:45;10.90;;;7.83;;
11996;SDS011;6058;48.704;9.474;2023-02-13T14:56:14;11.33;;;7.80;;
11996;SDS011;6058;48.704;9.474;2023-02-13T14:58:44;10.30;;;7.03;;
11996;SDS011;6058;48.704;9.474;2023-02-13T15:01:16;12.17;;;7.50;;
11996;SDS011;6058;48.704;9.474;2023-02-13T15:03:45;10.17;;;7.53;;
11996;SDS011;6058;48.704;9.474;2023-02-13T15:06:14;9.77;;;6.97;;
11996;SDS011;6058;48.704;9.474;2023-02-13T15:08:46;9.17;;;6.70;;
11996;SDS011;6058;48.704;9.474;2023-02-13T15:11:28;8.43;;;5.40;;
11996;SDS011;6058;48.704;9.474;2023-02-13T15:14:16;13.43;;;8.70;;
11996;SDS011;6058;48.704;9.474;2023-02-13T15:16:45;10.93;;;7.73;;
11996;SDS011;6058;48.704;9.474;2023-02-13T15:19:13;18.77;;;8.60;;
11996;SDS011;6058;48.704;9.474;2023-02-13T15:21:45;13.83;;;8.27;;
11996;SDS011;6058;48.704;9.474;2023-02-13T15:24:13;12.50;;;7.83;;
11996;SDS011;6058;48.704;9.474;2023-02-13T15:26:40;11.27;;;7.23;;
11996;SDS011;6058;48.704;9.474;2023-02-13T15:29:12;11.90;;;7.87;;
11996;SDS011;6058;48.704;9.474;2023-02-13T15:31:40;13.80;;;8.23;;